This is the latest recevied weather packets stored in our database for station/object GW6922. If no packets are shown the sender has not sent any weather packets the latest 10 day(s).
| Time | Temp. | Humidity | Pressure | Rain* | Wind** | Luminosity | Snow |
|---|---|---|---|---|---|---|---|
| 1777561571 | 13.89° C | 48% | 1012 hPa | 0 mm | - | - | - |
| 1777557260 | 11.67° C | 49% | 1012.6 hPa | 0 mm | - | - | - |
| 1777551100 | 5° C | 74% | 1013.3 hPa | 0 mm | - | - | - |
| 1777550480 | 4.44° C | 77% | 1013.3 hPa | 0 mm | - | - | - |
| 1777548010 | 2.22° C | 84% | 1013.1 hPa | 0 mm | - | - | - |
| 1777547380 | 2.78° C | 82% | 1012.9 hPa | 0 mm | - | - | - |
| 1777546150 | 2.22° C | 84% | 1013.5 hPa | 0 mm | - | - | - |
| 1777542490 | 3.33° C | 79% | 1013.3 hPa | 0 mm | - | - | - |
| 1777536978 | 2.22° C | 80% | 1013.6 hPa | 0 mm | - | - | - |
| 1777536385 | 2.78° C | 79% | 1013.6 hPa | 0 mm | - | - | - |
| 1777535120 | 2.22° C | 82% | 1013.6 hPa | 0 mm | - | - | - |
| 1777533287 | 2.78° C | 80% | 1013.6 hPa | 0 mm | - | - | - |
| 1777530230 | 3.33° C | 79% | 1014.1 hPa | 0 mm | - | - | - |
| 1777529600 | 3.33° C | 78% | 1014.3 hPa | 0 mm | - | - | - |
| 1777526545 | 3.89° C | 74% | 1014.1 hPa | 0 mm | - | - | - |
| 1777522840 | 5.56° C | 66% | 1014.1 hPa | 0 mm | - | - | - |
| 1777520380 | 6.11° C | 63% | 1014.3 hPa | 0 mm | - | - | - |
| 1777519780 | 6.11° C | 61% | 1014.2 hPa | 0 mm | - | - | - |
| 1777513045 | 10.56° C | 41% | 1013 hPa | 0 mm | - | - | - |
| 1777512410 | 11.11° C | 39% | 1013 hPa | 0 mm | - | - | - |
| 1777509340 | 12.78° C | 34% | 1012.1 hPa | 0 mm | - | - | - |
| 1777504458 | 15° C | 30% | 1011.5 hPa | 0 mm | - | - | - |
| 1777503850 | 13.89° C | 33% | 1011.7 hPa | 0 mm | - | - | - |
| 1777502629 | 14.44° C | 32% | 1011.5 hPa | 0 mm | - | - | - |
| 1777499560 | 15.56° C | 32% | 1011.4 hPa | 0 mm | - | - | - |
* Rain latest hour (hover to see other rain measurements)
** Current wind speed in m/s (hover to see current wind gust speed)